sensor_id;sensor_type;location;lat;lon;timestamp;P1;durP1;ratioP1;P2;durP2;ratioP2
65737;SDS011;52478;51.844;6.582;2023-02-08T00:00:05;7.47;;;3.63;;
65737;SDS011;52478;51.844;6.582;2023-02-08T00:02:32;8.38;;;4.05;;
65737;SDS011;52478;51.844;6.582;2023-02-08T00:04:59;8.27;;;3.38;;
65737;SDS011;52478;51.844;6.582;2023-02-08T00:07:26;6.97;;;3.40;;
65737;SDS011;52478;51.844;6.582;2023-02-08T00:09:52;7.65;;;3.60;;
65737;SDS011;52478;51.844;6.582;2023-02-08T00:12:20;7.82;;;4.00;;
65737;SDS011;52478;51.844;6.582;2023-02-08T00:14:47;7.60;;;3.72;;
65737;SDS011;52478;51.844;6.582;2023-02-08T00:17:13;8.43;;;3.60;;
65737;SDS011;52478;51.844;6.582;2023-02-08T00:19:40;8.18;;;3.45;;
65737;SDS011;52478;51.844;6.582;2023-02-08T00:22:06;9.43;;;3.20;;
65737;SDS011;52478;51.844;6.582;2023-02-08T00:24:33;7.15;;;3.90;;
65737;SDS011;52478;51.844;6.582;2023-02-08T00:26:59;7.25;;;3.58;;
65737;SDS011;52478;51.844;6.582;2023-02-08T00:29:27;7.40;;;3.10;;
65737;SDS011;52478;51.844;6.582;2023-02-08T00:31:53;7.43;;;3.53;;
65737;SDS011;52478;51.844;6.582;2023-02-08T00:34:20;8.05;;;3.60;;
65737;SDS011;52478;51.844;6.582;2023-02-08T00:36:46;7.22;;;3.30;;
65737;SDS011;52478;51.844;6.582;2023-02-08T00:39:13;7.80;;;3.33;;
65737;SDS011;52478;51.844;6.582;2023-02-08T00:41:40;7.30;;;3.50;;
65737;SDS011;52478;51.844;6.582;2023-02-08T00:44:06;7.25;;;3.40;;
65737;SDS011;52478;51.844;6.582;2023-02-08T00:46:34;7.90;;;4.18;;
65737;SDS011;52478;51.844;6.582;2023-02-08T00:49:01;7.32;;;3.63;;
65737;SDS011;52478;51.844;6.582;2023-02-08T00:51:27;7.63;;;3.78;;
65737;SDS011;52478;51.844;6.582;2023-02-08T00:53:54;8.32;;;3.97;;
65737;SDS011;52478;51.844;6.582;2023-02-08T00:56:21;7.68;;;3.28;;
65737;SDS011;52478;51.844;6.582;2023-02-08T00:58:47;7.18;;;3.60;;
65737;SDS011;52478;51.844;6.582;2023-02-08T01:01:14;7.72;;;3.28;;
65737;SDS011;52478;51.844;6.582;2023-02-08T01:03:42;6.90;;;3.00;;
65737;SDS011;52478;51.844;6.582;2023-02-08T01:06:10;9.35;;;3.03;;
65737;SDS011;52478;51.844;6.582;2023-02-08T01:08:39;7.22;;;3.50;;
65737;SDS011;52478;51.844;6.582;2023-02-08T01:11:07;7.43;;;3.30;;
65737;SDS011;52478;51.844;6.582;2023-02-08T01:13:35;7.28;;;3.28;;
65737;SDS011;52478;51.844;6.582;2023-02-08T01:18:32;6.35;;;3.05;;
65737;SDS011;52478;51.844;6.582;2023-02-08T01:21:03;7.03;;;3.50;;
65737;SDS011;52478;51.844;6.582;2023-02-08T01:23:31;7.65;;;3.80;;
65737;SDS011;52478;51.844;6.582;2023-02-08T01:25:58;7.80;;;3.70;;
65737;SDS011;52478;51.844;6.582;2023-02-08T01:28:24;7.05;;;3.22;;
65737;SDS011;52478;51.844;6.582;2023-02-08T01:30:51;6.60;;;3.38;;
65737;SDS011;52478;51.844;6.582;2023-02-08T01:33:17;8.20;;;3.22;;
65737;SDS011;52478;51.844;6.582;2023-02-08T01:35:44;6.70;;;2.78;;
65737;SDS011;52478;51.844;6.582;2023-02-08T01:38:11;6.13;;;2.95;;
65737;SDS011;52478;51.844;6.582;2023-02-08T01:40:38;7.20;;;3.67;;
65737;SDS011;52478;51.844;6.582;2023-02-08T01:43:05;7.82;;;3.40;;
65737;SDS011;52478;51.844;6.582;2023-02-08T01:48:05;6.22;;;3.30;;
65737;SDS011;52478;51.844;6.582;2023-02-08T01:50:39;7.10;;;3.38;;
65737;SDS011;52478;51.844;6.582;2023-02-08T01:53:17;7.43;;;3.42;;
65737;SDS011;52478;51.844;6.582;2023-02-08T01:55:45;6.90;;;2.88;;
65737;SDS011;52478;51.844;6.582;2023-02-08T01:58:14;7.95;;;3.60;;
65737;SDS011;52478;51.844;6.582;2023-02-08T02:00:43;6.78;;;3.50;;
65737;SDS011;52478;51.844;6.582;2023-02-08T02:03:09;6.97;;;3.50;;
65737;SDS011;52478;51.844;6.582;2023-02-08T02:05:38;6.22;;;2.90;;
65737;SDS011;52478;51.844;6.582;2023-02-08T02:08:08;7.57;;;3.70;;
65737;SDS011;52478;51.844;6.582;2023-02-08T02:10:37;7.45;;;3.47;;
65737;SDS011;52478;51.844;6.582;2023-02-08T02:13:05;7.20;;;3.13;;
65737;SDS011;52478;51.844;6.582;2023-02-08T02:15:34;8.52;;;3.85;;
65737;SDS011;52478;51.844;6.582;2023-02-08T02:18:01;6.95;;;3.67;;
65737;SDS011;52478;51.844;6.582;2023-02-08T02:20:33;7.15;;;3.75;;
65737;SDS011;52478;51.844;6.582;2023-02-08T02:26:15;8.38;;;3.30;;
65737;SDS011;52478;51.844;6.582;2023-02-08T02:29:29;6.68;;;3.55;;
65737;SDS011;52478;51.844;6.582;2023-02-08T02:32:27;6.88;;;3.40;;
65737;SDS011;52478;51.844;6.582;2023-02-08T02:35:05;7.30;;;3.10;;
65737;SDS011;52478;51.844;6.582;2023-02-08T02:37:42;6.93;;;3.40;;
65737;SDS011;52478;51.844;6.582;2023-02-08T02:40:17;7.05;;;3.50;;
65737;SDS011;52478;51.844;6.582;2023-02-08T02:42:53;6.80;;;3.50;;
65737;SDS011;52478;51.844;6.582;2023-02-08T02:45:45;6.63;;;3.38;;
65737;SDS011;52478;51.844;6.582;2023-02-08T02:48:21;7.78;;;3.50;;
65737;SDS011;52478;51.844;6.582;2023-02-08T02:50:51;6.68;;;3.05;;
65737;SDS011;52478;51.844;6.582;2023-02-08T02:53:23;6.40;;;3.15;;
65737;SDS011;52478;51.844;6.582;2023-02-08T02:55:54;7.05;;;3.15;;
65737;SDS011;52478;51.844;6.582;2023-02-08T02:58:23;6.68;;;3.00;;
65737;SDS011;52478;51.844;6.582;2023-02-08T03:00:52;7.13;;;3.25;;
65737;SDS011;52478;51.844;6.582;2023-02-08T03:03:22;6.22;;;3.00;;
65737;SDS011;52478;51.844;6.582;2023-02-08T03:05:50;7.13;;;2.88;;
65737;SDS011;52478;51.844;6.582;2023-02-08T03:08:23;6.30;;;3.38;;
65737;SDS011;52478;51.844;6.582;2023-02-08T03:11:05;6.45;;;2.95;;
65737;SDS011;52478;51.844;6.582;2023-02-08T03:13:52;6.93;;;3.60;;
65737;SDS011;52478;51.844;6.582;2023-02-08T03:16:30;6.50;;;3.00;;
65737;SDS011;52478;51.844;6.582;2023-02-08T03:19:06;6.90;;;3.22;;
65737;SDS011;52478;51.844;6.582;2023-02-08T03:21:40;7.03;;;3.40;;
65737;SDS011;52478;51.844;6.582;2023-02-08T03:24:19;7.07;;;3.22;;
65737;SDS011;52478;51.844;6.582;2023-02-08T03:26:52;6.88;;;3.58;;
65737;SDS011;52478;51.844;6.582;2023-02-08T03:29:24;6.82;;;3.20;;
65737;SDS011;52478;51.844;6.582;2023-02-08T03:32:01;6.05;;;3.40;;
65737;SDS011;52478;51.844;6.582;2023-02-08T03:37:08;6.90;;;2.80;;
65737;SDS011;52478;51.844;6.582;2023-02-08T03:39:40;6.38;;;3.00;;
65737;SDS011;52478;51.844;6.582;2023-02-08T03:42:11;6.45;;;3.22;;
65737;SDS011;52478;51.844;6.582;2023-02-08T03:44:41;7.10;;;3.17;;
65737;SDS011;52478;51.844;6.582;2023-02-08T03:47:12;6.63;;;3.03;;
65737;SDS011;52478;51.844;6.582;2023-02-08T03:49:44;7.00;;;2.92;;
65737;SDS011;52478;51.844;6.582;2023-02-08T03:52:13;6.18;;;2.90;;
65737;SDS011;52478;51.844;6.582;2023-02-08T03:54:40;7.28;;;3.63;;
65737;SDS011;52478;51.844;6.582;2023-02-08T03:57:12;6.45;;;3.05;;
65737;SDS011;52478;51.844;6.582;2023-02-08T03:59:46;6.75;;;2.92;;
65737;SDS011;52478;51.844;6.582;2023-02-08T04:02:17;6.75;;;3.17;;
65737;SDS011;52478;51.844;6.582;2023-02-08T04:04:48;6.10;;;2.72;;
65737;SDS011;52478;51.844;6.582;2023-02-08T04:07:16;6.55;;;3.33;;
65737;SDS011;52478;51.844;6.582;2023-02-08T04:09:43;6.72;;;3.50;;
65737;SDS011;52478;51.844;6.582;2023-02-08T04:12:10;6.75;;;3.33;;
65737;SDS011;52478;51.844;6.582;2023-02-08T04:14:36;7.07;;;3.40;;
65737;SDS011;52478;51.844;6.582;2023-02-08T04:17:03;7.47;;;4.13;;
65737;SDS011;52478;51.844;6.582;2023-02-08T04:19:29;7.03;;;3.47;;
65737;SDS011;52478;51.844;6.582;2023-02-08T04:21:57;6.93;;;3.15;;
65737;SDS011;52478;51.844;6.582;2023-02-08T04:24:23;7.00;;;3.03;;
65737;SDS011;52478;51.844;6.582;2023-02-08T04:26:50;6.18;;;2.80;;
65737;SDS011;52478;51.844;6.582;2023-02-08T04:29:16;7.00;;;3.60;;
65737;SDS011;52478;51.844;6.582;2023-02-08T04:31:43;7.25;;;3.33;;
65737;SDS011;52478;51.844;6.582;2023-02-08T04:34:09;6.43;;;3.35;;
65737;SDS011;52478;51.844;6.582;2023-02-08T04:36:36;6.68;;;3.28;;
65737;SDS011;52478;51.844;6.582;2023-02-08T04:39:03;6.53;;;3.40;;
65737;SDS011;52478;51.844;6.582;2023-02-08T04:41:30;8.07;;;3.28;;
65737;SDS011;52478;51.844;6.582;2023-02-08T04:43:57;7.38;;;3.58;;
65737;SDS011;52478;51.844;6.582;2023-02-08T04:46:23;6.05;;;2.83;;
65737;SDS011;52478;51.844;6.582;2023-02-08T04:48:50;7.15;;;3.75;;
65737;SDS011;52478;51.844;6.582;2023-02-08T04:51:16;6.25;;;3.03;;
65737;SDS011;52478;51.844;6.582;2023-02-08T04:53:42;6.30;;;3.17;;
65737;SDS011;52478;51.844;6.582;2023-02-08T04:56:10;6.45;;;3.00;;
65737;SDS011;52478;51.844;6.582;2023-02-08T04:58:37;6.38;;;3.22;;
65737;SDS011;52478;51.844;6.582;2023-02-08T05:01:04;6.40;;;3.17;;
65737;SDS011;52478;51.844;6.582;2023-02-08T05:03:32;6.22;;;3.00;;
65737;SDS011;52478;51.844;6.582;2023-02-08T05:05:58;6.30;;;2.85;;
65737;SDS011;52478;51.844;6.582;2023-02-08T05:08:25;6.43;;;3.13;;
65737;SDS011;52478;51.844;6.582;2023-02-08T05:10:52;6.32;;;3.45;;
65737;SDS011;52478;51.844;6.582;2023-02-08T05:13:20;6.78;;;2.95;;
65737;SDS011;52478;51.844;6.582;2023-02-08T05:15:46;6.40;;;3.25;;
65737;SDS011;52478;51.844;6.582;2023-02-08T05:18:13;6.22;;;2.67;;
65737;SDS011;52478;51.844;6.582;2023-02-08T05:20:39;6.63;;;2.78;;
65737;SDS011;52478;51.844;6.582;2023-02-08T05:23:05;5.95;;;3.40;;
65737;SDS011;52478;51.844;6.582;2023-02-08T05:25:32;6.78;;;3.22;;
65737;SDS011;52478;51.844;6.582;2023-02-08T05:27:58;6.47;;;2.90;;
65737;SDS011;52478;51.844;6.582;2023-02-08T05:30:26;6.93;;;3.05;;
65737;SDS011;52478;51.844;6.582;2023-02-08T05:32:53;6.35;;;3.30;;
65737;SDS011;52478;51.844;6.582;2023-02-08T05:35:19;7.15;;;3.20;;
65737;SDS011;52478;51.844;6.582;2023-02-08T05:37:46;6.15;;;2.95;;
65737;SDS011;52478;51.844;6.582;2023-02-08T05:40:12;6.55;;;3.40;;
65737;SDS011;52478;51.844;6.582;2023-02-08T05:42:38;6.35;;;3.30;;
65737;SDS011;52478;51.844;6.582;2023-02-08T05:45:06;6.45;;;3.08;;
65737;SDS011;52478;51.844;6.582;2023-02-08T05:50:01;6.82;;;3.20;;
65737;SDS011;52478;51.844;6.582;2023-02-08T05:52:27;6.18;;;3.03;;
65737;SDS011;52478;51.844;6.582;2023-02-08T05:54:54;6.47;;;3.03;;
65737;SDS011;52478;51.844;6.582;2023-02-08T05:57:20;8.20;;;3.08;;
65737;SDS011;52478;51.844;6.582;2023-02-08T05:59:46;6.68;;;3.47;;
65737;SDS011;52478;51.844;6.582;2023-02-08T06:02:13;6.75;;;2.83;;
65737;SDS011;52478;51.844;6.582;2023-02-08T06:04:41;6.70;;;3.15;;
65737;SDS011;52478;51.844;6.582;2023-02-08T06:07:07;6.32;;;3.20;;
65737;SDS011;52478;51.844;6.582;2023-02-08T06:09:34;6.38;;;2.80;;
65737;SDS011;52478;51.844;6.582;2023-02-08T06:12:00;6.30;;;3.55;;
65737;SDS011;52478;51.844;6.582;2023-02-08T06:14:27;6.28;;;2.70;;
65737;SDS011;52478;51.844;6.582;2023-02-08T06:16:53;6.43;;;3.17;;
65737;SDS011;52478;51.844;6.582;2023-02-08T06:19:20;9.27;;;3.38;;
65737;SDS011;52478;51.844;6.582;2023-02-08T06:21:48;6.25;;;3.15;;
65737;SDS011;52478;51.844;6.582;2023-02-08T06:24:14;6.65;;;3.20;;
65737;SDS011;52478;51.844;6.582;2023-02-08T06:26:41;6.20;;;2.83;;
65737;SDS011;52478;51.844;6.582;2023-02-08T06:29:08;6.68;;;3.20;;
65737;SDS011;52478;51.844;6.582;2023-02-08T06:31:35;6.28;;;2.90;;
65737;SDS011;52478;51.844;6.582;2023-02-08T06:34:02;6.47;;;2.92;;
65737;SDS011;52478;51.844;6.582;2023-02-08T06:36:28;6.75;;;3.15;;
65737;SDS011;52478;51.844;6.582;2023-02-08T06:38:56;6.53;;;2.80;;
65737;SDS011;52478;51.844;6.582;2023-02-08T06:41:22;8.98;;;3.42;;
65737;SDS011;52478;51.844;6.582;2023-02-08T06:43:49;9.63;;;3.50;;
65737;SDS011;52478;51.844;6.582;2023-02-08T06:46:15;13.98;;;4.32;;
65737;SDS011;52478;51.844;6.582;2023-02-08T06:48:42;10.88;;;3.83;;
65737;SDS011;52478;51.844;6.582;2023-02-08T06:51:08;9.43;;;3.70;;
65737;SDS011;52478;51.844;6.582;2023-02-08T06:53:35;13.00;;;3.85;;
65737;SDS011;52478;51.844;6.582;2023-02-08T06:56:03;9.27;;;3.38;;
65737;SDS011;52478;51.844;6.582;2023-02-08T06:58:29;10.75;;;4.03;;
65737;SDS011;52478;51.844;6.582;2023-02-08T07:00:56;8.88;;;3.40;;
65737;SDS011;52478;51.844;6.582;2023-02-08T07:03:22;10.55;;;3.22;;
65737;SDS011;52478;51.844;6.582;2023-02-08T07:05:49;9.38;;;3.75;;
65737;SDS011;52478;51.844;6.582;2023-02-08T07:08:15;9.95;;;3.80;;
65737;SDS011;52478;51.844;6.582;2023-02-08T07:10:42;10.60;;;3.92;;
65737;SDS011;52478;51.844;6.582;2023-02-08T07:13:10;8.70;;;3.58;;
65737;SDS011;52478;51.844;6.582;2023-02-08T07:15:36;8.77;;;4.00;;
65737;SDS011;52478;51.844;6.582;2023-02-08T07:18:03;8.85;;;3.40;;
65737;SDS011;52478;51.844;6.582;2023-02-08T07:20:29;9.48;;;3.28;;
65737;SDS011;52478;51.844;6.582;2023-02-08T07:22:56;8.38;;;3.47;;
65737;SDS011;52478;51.844;6.582;2023-02-08T07:25:23;7.80;;;3.20;;
65737;SDS011;52478;51.844;6.582;2023-02-08T07:27:49;8.40;;;4.10;;
65737;SDS011;52478;51.844;6.582;2023-02-08T07:30:17;6.88;;;3.58;;
65737;SDS011;52478;51.844;6.582;2023-02-08T07:32:44;8.23;;;4.05;;
65737;SDS011;52478;51.844;6.582;2023-02-08T07:35:10;7.10;;;3.58;;
65737;SDS011;52478;51.844;6.582;2023-02-08T07:37:37;9.73;;;3.40;;
65737;SDS011;52478;51.844;6.582;2023-02-08T07:40:04;7.18;;;3.50;;
65737;SDS011;52478;51.844;6.582;2023-02-08T07:44:58;8.15;;;3.67;;
65737;SDS011;52478;51.844;6.582;2023-02-08T07:47:25;8.90;;;3.92;;
65737;SDS011;52478;51.844;6.582;2023-02-08T07:49:52;9.48;;;5.15;;
65737;SDS011;52478;51.844;6.582;2023-02-08T07:52:18;20.48;;;11.55;;
65737;SDS011;52478;51.844;6.582;2023-02-08T07:54:45;114.60;;;79.50;;
65737;SDS011;52478;51.844;6.582;2023-02-08T07:57:11;242.95;;;144.45;;
65737;SDS011;52478;51.844;6.582;2023-02-08T07:59:44;374.38;;;198.32;;
65737;SDS011;52478;51.844;6.582;2023-02-08T08:02:10;325.85;;;173.13;;
65737;SDS011;52478;51.844;6.582;2023-02-08T08:04:40;300.17;;;161.20;;
65737;SDS011;52478;51.844;6.582;2023-02-08T08:07:06;292.15;;;159.88;;
65737;SDS011;52478;51.844;6.582;2023-02-08T08:09:33;277.77;;;154.43;;
65737;SDS011;52478;51.844;6.582;2023-02-08T08:11:59;268.15;;;149.82;;
65737;SDS011;52478;51.844;6.582;2023-02-08T08:14:26;265.65;;;140.68;;
65737;SDS011;52478;51.844;6.582;2023-02-08T08:16:52;244.50;;;139.52;;
65737;SDS011;52478;51.844;6.582;2023-02-08T08:19:19;229.77;;;131.45;;
65737;SDS011;52478;51.844;6.582;2023-02-08T08:21:46;73.63;;;46.10;;
65737;SDS011;52478;51.844;6.582;2023-02-08T08:24:13;35.90;;;23.60;;
65737;SDS011;52478;51.844;6.582;2023-02-08T08:26:40;26.58;;;16.35;;
65737;SDS011;52478;51.844;6.582;2023-02-08T08:29:06;23.40;;;14.48;;
65737;SDS011;52478;51.844;6.582;2023-02-08T08:31:33;21.45;;;13.55;;
65737;SDS011;52478;51.844;6.582;2023-02-08T08:34:00;24.80;;;12.95;;
65737;SDS011;52478;51.844;6.582;2023-02-08T08:36:26;25.98;;;10.63;;
65737;SDS011;52478;51.844;6.582;2023-02-08T08:38:54;15.65;;;10.48;;
65737;SDS011;52478;51.844;6.582;2023-02-08T08:41:20;15.73;;;10.15;;
65737;SDS011;52478;51.844;6.582;2023-02-08T08:43:47;16.40;;;9.38;;
65737;SDS011;52478;51.844;6.582;2023-02-08T08:46:13;15.02;;;9.30;;
65737;SDS011;52478;51.844;6.582;2023-02-08T08:48:40;15.50;;;8.32;;
65737;SDS011;52478;51.844;6.582;2023-02-08T08:51:07;16.00;;;8.80;;
65737;SDS011;52478;51.844;6.582;2023-02-08T08:53:33;17.45;;;9.40;;
65737;SDS011;52478;51.844;6.582;2023-02-08T08:56:02;14.65;;;8.00;;
65737;SDS011;52478;51.844;6.582;2023-02-08T08:58:29;12.35;;;7.25;;
65737;SDS011;52478;51.844;6.582;2023-02-08T09:00:55;12.35;;;7.38;;
65737;SDS011;52478;51.844;6.582;2023-02-08T09:03:22;13.82;;;8.27;;
65737;SDS011;52478;51.844;6.582;2023-02-08T09:05:49;11.65;;;7.72;;
65737;SDS011;52478;51.844;6.582;2023-02-08T09:08:16;12.25;;;6.85;;
65737;SDS011;52478;51.844;6.582;2023-02-08T09:10:42;11.45;;;7.25;;
65737;SDS011;52478;51.844;6.582;2023-02-08T09:13:10;13.27;;;7.70;;
65737;SDS011;52478;51.844;6.582;2023-02-08T09:15:43;12.30;;;6.75;;
65737;SDS011;52478;51.844;6.582;2023-02-08T09:18:10;11.95;;;6.72;;
65737;SDS011;52478;51.844;6.582;2023-02-08T09:20:36;11.68;;;6.60;;
65737;SDS011;52478;51.844;6.582;2023-02-08T09:23:03;12.13;;;7.53;;
65737;SDS011;52478;51.844;6.582;2023-02-08T09:25:29;12.55;;;6.68;;
65737;SDS011;52478;51.844;6.582;2023-02-08T09:27:57;10.55;;;6.25;;
65737;SDS011;52478;51.844;6.582;2023-02-08T09:30:25;11.88;;;6.70;;
65737;SDS011;52478;51.844;6.582;2023-02-08T09:32:51;10.50;;;5.93;;
65737;SDS011;52478;51.844;6.582;2023-02-08T09:35:18;11.48;;;7.53;;
65737;SDS011;52478;51.844;6.582;2023-02-08T09:37:44;11.77;;;6.38;;
65737;SDS011;52478;51.844;6.582;2023-02-08T09:40:13;10.73;;;6.88;;
65737;SDS011;52478;51.844;6.582;2023-02-08T09:42:46;9.98;;;6.40;;
65737;SDS011;52478;51.844;6.582;2023-02-08T09:45:23;10.75;;;6.03;;
65737;SDS011;52478;51.844;6.582;2023-02-08T09:48:03;9.52;;;6.00;;
65737;SDS011;52478;51.844;6.582;2023-02-08T09:50:40;10.80;;;6.10;;
65737;SDS011;52478;51.844;6.582;2023-02-08T09:53:10;10.75;;;6.28;;
65737;SDS011;52478;51.844;6.582;2023-02-08T09:55:41;10.27;;;6.07;;
65737;SDS011;52478;51.844;6.582;2023-02-08T09:58:19;9.70;;;6.00;;
65737;SDS011;52478;51.844;6.582;2023-02-08T10:00:50;11.02;;;6.25;;
65737;SDS011;52478;51.844;6.582;2023-02-08T10:03:20;9.93;;;5.65;;
65737;SDS011;52478;51.844;6.582;2023-02-08T10:05:52;10.27;;;6.07;;
65737;SDS011;52478;51.844;6.582;2023-02-08T10:13:20;9.10;;;5.15;;
65737;SDS011;52478;51.844;6.582;2023-02-08T10:15:59;9.43;;;5.90;;
65737;SDS011;52478;51.844;6.582;2023-02-08T10:18:36;8.65;;;5.30;;
65737;SDS011;52478;51.844;6.582;2023-02-08T10:24:06;8.57;;;4.82;;
65737;SDS011;52478;51.844;6.582;2023-02-08T10:26:48;9.30;;;5.63;;
65737;SDS011;52478;51.844;6.582;2023-02-08T10:29:28;9.18;;;5.18;;
65737;SDS011;52478;51.844;6.582;2023-02-08T10:32:06;11.00;;;4.97;;
65737;SDS011;52478;51.844;6.582;2023-02-08T10:34:45;8.75;;;4.70;;
65737;SDS011;52478;51.844;6.582;2023-02-08T10:37:18;9.40;;;5.43;;
65737;SDS011;52478;51.844;6.582;2023-02-08T10:39:46;8.85;;;4.70;;
65737;SDS011;52478;51.844;6.582;2023-02-08T10:42:15;9.48;;;5.40;;
65737;SDS011;52478;51.844;6.582;2023-02-08T10:44:49;9.20;;;4.97;;
65737;SDS011;52478;51.844;6.582;2023-02-08T10:47:25;9.32;;;4.68;;
65737;SDS011;52478;51.844;6.582;2023-02-08T10:50:02;9.45;;;5.07;;
65737;SDS011;52478;51.844;6.582;2023-02-08T10:52:32;11.20;;;4.93;;
65737;SDS011;52478;51.844;6.582;2023-02-08T10:54:58;9.13;;;5.40;;
65737;SDS011;52478;51.844;6.582;2023-02-08T10:57:26;9.55;;;4.93;;
65737;SDS011;52478;51.844;6.582;2023-02-08T10:59:57;10.60;;;5.93;;
65737;SDS011;52478;51.844;6.582;2023-02-08T11:02:28;11.55;;;5.68;;
65737;SDS011;52478;51.844;6.582;2023-02-08T11:04:58;11.90;;;5.47;;
65737;SDS011;52478;51.844;6.582;2023-02-08T11:07:27;10.10;;;5.00;;
65737;SDS011;52478;51.844;6.582;2023-02-08T11:09:54;9.23;;;4.85;;
65737;SDS011;52478;51.844;6.582;2023-02-08T11:12:39;9.57;;;4.93;;
65737;SDS011;52478;51.844;6.582;2023-02-08T11:15:15;8.90;;;5.53;;
65737;SDS011;52478;51.844;6.582;2023-02-08T11:17:52;10.95;;;5.57;;
65737;SDS011;52478;51.844;6.582;2023-02-08T11:20:24;9.75;;;6.07;;
65737;SDS011;52478;51.844;6.582;2023-02-08T11:22:55;11.07;;;5.85;;
65737;SDS011;52478;51.844;6.582;2023-02-08T11:25:30;9.90;;;5.35;;
65737;SDS011;52478;51.844;6.582;2023-02-08T11:28:01;10.45;;;5.45;;
65737;SDS011;52478;51.844;6.582;2023-02-08T11:30:28;10.27;;;5.90;;
65737;SDS011;52478;51.844;6.582;2023-02-08T11:35:50;11.68;;;5.80;;
65737;SDS011;52478;51.844;6.582;2023-02-08T11:38:18;10.27;;;5.55;;
65737;SDS011;52478;51.844;6.582;2023-02-08T11:40:51;10.65;;;5.53;;
65737;SDS011;52478;51.844;6.582;2023-02-08T11:43:20;11.70;;;6.32;;
65737;SDS011;52478;51.844;6.582;2023-02-08T11:45:48;10.63;;;5.90;;
65737;SDS011;52478;51.844;6.582;2023-02-08T11:50:51;10.52;;;6.25;;
65737;SDS011;52478;51.844;6.582;2023-02-08T11:53:20;11.63;;;5.78;;
65737;SDS011;52478;51.844;6.582;2023-02-08T11:56:00;10.45;;;5.90;;
65737;SDS011;52478;51.844;6.582;2023-02-08T11:58:28;12.70;;;6.57;;
65737;SDS011;52478;51.844;6.582;2023-02-08T12:00:59;12.45;;;7.88;;
65737;SDS011;52478;51.844;6.582;2023-02-08T12:03:29;12.95;;;7.03;;
65737;SDS011;52478;51.844;6.582;2023-02-08T12:06:01;13.05;;;7.38;;
65737;SDS011;52478;51.844;6.582;2023-02-08T12:08:37;12.20;;;6.68;;
65737;SDS011;52478;51.844;6.582;2023-02-08T12:11:13;13.82;;;7.53;;
65737;SDS011;52478;51.844;6.582;2023-02-08T12:13:54;11.18;;;6.82;;
65737;SDS011;52478;51.844;6.582;2023-02-08T12:16:32;12.43;;;6.70;;
65737;SDS011;52478;51.844;6.582;2023-02-08T12:19:26;10.65;;;5.80;;
65737;SDS011;52478;51.844;6.582;2023-02-08T12:22:09;13.55;;;7.20;;
65737;SDS011;52478;51.844;6.582;2023-02-08T12:24:40;11.50;;;6.43;;
65737;SDS011;52478;51.844;6.582;2023-02-08T12:27:17;11.95;;;6.22;;
65737;SDS011;52478;51.844;6.582;2023-02-08T12:29:54;10.75;;;5.95;;
65737;SDS011;52478;51.844;6.582;2023-02-08T12:32:32;13.25;;;6.00;;
65737;SDS011;52478;51.844;6.582;2023-02-08T12:38:16;10.40;;;6.20;;
65737;SDS011;52478;51.844;6.582;2023-02-08T12:41:12;14.10;;;6.22;;
65737;SDS011;52478;51.844;6.582;2023-02-08T12:43:47;9.73;;;5.22;;
65737;SDS011;52478;51.844;6.582;2023-02-08T12:46:26;11.48;;;5.40;;
65737;SDS011;52478;51.844;6.582;2023-02-08T12:49:16;10.27;;;5.40;;
65737;SDS011;52478;51.844;6.582;2023-02-08T12:52:01;11.27;;;4.97;;
65737;SDS011;52478;51.844;6.582;2023-02-08T12:54:33;9.55;;;5.38;;
65737;SDS011;52478;51.844;6.582;2023-02-08T12:57:04;11.52;;;5.88;;
65737;SDS011;52478;51.844;6.582;2023-02-08T12:59:32;10.02;;;4.75;;
65737;SDS011;52478;51.844;6.582;2023-02-08T13:02:04;10.38;;;4.90;;
65737;SDS011;52478;51.844;6.582;2023-02-08T13:04:40;8.57;;;4.50;;
65737;SDS011;52478;51.844;6.582;2023-02-08T13:07:10;9.05;;;4.97;;
65737;SDS011;52478;51.844;6.582;2023-02-08T13:09:43;10.18;;;5.15;;
65737;SDS011;52478;51.844;6.582;2023-02-08T13:12:15;9.32;;;4.93;;
65737;SDS011;52478;51.844;6.582;2023-02-08T13:14:47;9.57;;;5.38;;
65737;SDS011;52478;51.844;6.582;2023-02-08T13:17:18;9.68;;;4.60;;
65737;SDS011;52478;51.844;6.582;2023-02-08T13:19:48;10.48;;;5.07;;
65737;SDS011;52478;51.844;6.582;2023-02-08T13:22:18;9.02;;;5.15;;
65737;SDS011;52478;51.844;6.582;2023-02-08T13:24:47;8.98;;;4.63;;
65737;SDS011;52478;51.844;6.582;2023-02-08T13:27:16;8.90;;;4.53;;
65737;SDS011;52478;51.844;6.582;2023-02-08T13:29:43;8.23;;;4.28;;
65737;SDS011;52478;51.844;6.582;2023-02-08T13:32:14;9.48;;;4.82;;
65737;SDS011;52478;51.844;6.582;2023-02-08T13:34:46;8.68;;;4.82;;
65737;SDS011;52478;51.844;6.582;2023-02-08T13:37:17;8.77;;;4.47;;
65737;SDS011;52478;51.844;6.582;2023-02-08T13:39:45;9.80;;;4.60;;
65737;SDS011;52478;51.844;6.582;2023-02-08T13:42:19;9.38;;;4.38;;
65737;SDS011;52478;51.844;6.582;2023-02-08T13:44:49;10.00;;;4.53;;
65737;SDS011;52478;51.844;6.582;2023-02-08T13:47:21;9.20;;;4.32;;
65737;SDS011;52478;51.844;6.582;2023-02-08T13:49:51;9.25;;;4.78;;
65737;SDS011;52478;51.844;6.582;2023-02-08T13:58:01;8.80;;;4.20;;
65737;SDS011;52478;51.844;6.582;2023-02-08T14:00:29;8.48;;;4.95;;
65737;SDS011;52478;51.844;6.582;2023-02-08T14:02:57;10.27;;;4.13;;
65737;SDS011;52478;51.844;6.582;2023-02-08T14:05:34;9.57;;;3.88;;
65737;SDS011;52478;51.844;6.582;2023-02-08T14:08:13;8.50;;;4.13;;
65737;SDS011;52478;51.844;6.582;2023-02-08T14:10:48;8.85;;;4.20;;
65737;SDS011;52478;51.844;6.582;2023-02-08T14:13:27;7.80;;;4.40;;
65737;SDS011;52478;51.844;6.582;2023-02-08T14:21:26;8.68;;;4.50;;
65737;SDS011;52478;51.844;6.582;2023-02-08T14:23:59;8.55;;;3.90;;
65737;SDS011;52478;51.844;6.582;2023-02-08T14:26:27;8.38;;;4.00;;
65737;SDS011;52478;51.844;6.582;2023-02-08T14:31:33;8.23;;;4.13;;
65737;SDS011;52478;51.844;6.582;2023-02-08T14:34:01;7.90;;;3.65;;
65737;SDS011;52478;51.844;6.582;2023-02-08T14:36:28;8.38;;;3.97;;
65737;SDS011;52478;51.844;6.582;2023-02-08T14:39:05;8.27;;;4.10;;
65737;SDS011;52478;51.844;6.582;2023-02-08T14:41:49;8.15;;;4.05;;
65737;SDS011;52478;51.844;6.582;2023-02-08T14:50:21;7.47;;;4.00;;
65737;SDS011;52478;51.844;6.582;2023-02-08T14:52:51;7.10;;;3.13;;
65737;SDS011;52478;51.844;6.582;2023-02-08T14:55:24;7.85;;;3.95;;
65737;SDS011;52478;51.844;6.582;2023-02-08T14:57:55;8.32;;;3.70;;
65737;SDS011;52478;51.844;6.582;2023-02-08T15:00:25;8.77;;;4.20;;
65737;SDS011;52478;51.844;6.582;2023-02-08T15:02:54;9.27;;;4.28;;
65737;SDS011;52478;51.844;6.582;2023-02-08T15:05:22;7.95;;;3.78;;
65737;SDS011;52478;51.844;6.582;2023-02-08T15:07:51;8.05;;;3.55;;
65737;SDS011;52478;51.844;6.582;2023-02-08T15:10:19;7.80;;;3.47;;
65737;SDS011;52478;51.844;6.582;2023-02-08T15:12:48;8.02;;;4.20;;
65737;SDS011;52478;51.844;6.582;2023-02-08T15:15:25;7.57;;;3.80;;
65737;SDS011;52478;51.844;6.582;2023-02-08T15:17:55;8.27;;;3.60;;
65737;SDS011;52478;51.844;6.582;2023-02-08T15:20:24;7.82;;;3.80;;
65737;SDS011;52478;51.844;6.582;2023-02-08T15:22:57;6.82;;;3.50;;
65737;SDS011;52478;51.844;6.582;2023-02-08T15:25:25;7.95;;;3.70;;
65737;SDS011;52478;51.844;6.582;2023-02-08T15:27:54;7.18;;;3.35;;
65737;SDS011;52478;51.844;6.582;2023-02-08T15:30:25;7.38;;;3.47;;
65737;SDS011;52478;51.844;6.582;2023-02-08T15:32:53;8.48;;;3.67;;
65737;SDS011;52478;51.844;6.582;2023-02-08T15:35:21;8.60;;;3.90;;
65737;SDS011;52478;51.844;6.582;2023-02-08T15:37:51;7.28;;;3.72;;
65737;SDS011;52478;51.844;6.582;2023-02-08T15:40:23;8.18;;;4.03;;
65737;SDS011;52478;51.844;6.582;2023-02-08T15:42:51;7.47;;;3.70;;
65737;SDS011;52478;51.844;6.582;2023-02-08T15:45:21;7.63;;;3.17;;
65737;SDS011;52478;51.844;6.582;2023-02-08T15:47:50;6.97;;;3.97;;
65737;SDS011;52478;51.844;6.582;2023-02-08T15:50:20;7.57;;;3.70;;